KMQY

Smyrna Airport

Smyrna, Tennessee, USA
METAR KMQY 141656Z 10007KT 10SM -RA FEW080 OVC100 12/11 A2996 RMK AO2 SLP083 P0010 T01220111
Observed Flight Rules
Dec-14 @ 16:56 UTC (23 minutes ago) Visual Flight Rules
Wind Visibility Clouds Conditions
100° at 7 knots 10 miles
  • Few at 8,000' AGL
  • Overcast at 10,000' AGL
  • Light Rain
Temperatures Readings Precipitation
Current 12°C / 54°F
Dewpoint 11°C / 52°F
Humidity 94%
Altimeter 29.96" Hg
Pressure 1008.3 hPa
Elevation 166
Current Rain 0.1
METAR KMQY 141656Z 10007KT 10SM -RA FEW080 OVC100 12/11 A2996 RMK AO2 SLP083 P0010 T01220111
Observed Flight Rules
Dec-14 @ 16:56 UTC
(23 minutes ago)
VFR
Wind Visibility
100° at 7 knots 10 miles
Clouds
  • Few at 8,000' AGL
  • Overcast at 10,000' AGL
Conditions
  • Light Rain
Temperature Dewpoint
12°C / 54°F 11°C / 52°F
Humidity Altimeter Pressure
94% 29.96" Hg 1008.3 hPa
Current Rain
0.1